createdAt,value
2018-12-24T00:02:19.311Z,12.16
2018-12-24T00:04:48.088Z,12.15
2018-12-24T00:07:16.756Z,12.19
2018-12-24T00:09:45.265Z,12.24
2018-12-24T00:12:13.781Z,12.20
2018-12-24T00:14:42.732Z,12.20
2018-12-24T00:17:12.038Z,12.31
2018-12-24T00:19:40.571Z,12.37
2018-12-24T00:22:09.114Z,12.39
2018-12-24T00:24:37.858Z,12.40
2018-12-24T00:27:07.035Z,12.45
2018-12-24T00:29:35.864Z,12.45
2018-12-24T00:32:04.413Z,12.43
2018-12-24T00:34:33.025Z,12.41
2018-12-24T00:37:01.558Z,12.37
2018-12-24T00:39:30.564Z,12.29
2018-12-24T00:41:59.583Z,12.24
2018-12-24T00:44:28.176Z,12.32
2018-12-24T00:46:57.114Z,12.31
2018-12-24T00:49:25.682Z,12.27
2018-12-24T00:51:54.808Z,12.20
2018-12-24T00:54:23.611Z,12.16
2018-12-24T00:56:52.432Z,12.22
2018-12-24T00:59:21.221Z,12.21
2018-12-24T01:01:49.733Z,12.19
2018-12-24T01:04:18.548Z,12.22
2018-12-24T01:06:47.245Z,12.21
2018-12-24T01:09:16.507Z,12.30
2018-12-24T01:11:45.082Z,12.30
2018-12-24T01:14:13.826Z,12.27
2018-12-24T01:16:42.414Z,12.36
2018-12-24T01:19:11.095Z,12.38
2018-12-24T01:22:31.579Z,12.37
2018-12-24T01:25:12.148Z,12.31
2018-12-24T01:27:53.217Z,12.32
2018-12-24T01:30:33.970Z,12.26
2018-12-24T01:33:14.164Z,12.23
2018-12-24T01:36:01.633Z,12.33
2018-12-24T01:38:41.646Z,12.22
2018-12-24T01:41:22.787Z,12.32
2018-12-24T01:44:03.780Z,12.27
2018-12-24T01:46:51.270Z,12.28
2018-12-24T01:49:32.385Z,12.31
2018-12-24T01:52:12.915Z,12.37
2018-12-24T01:54:54.008Z,12.26
2018-12-24T01:57:35.032Z,12.34
2018-12-24T02:00:15.350Z,12.37
2018-12-24T02:02:56.324Z,12.32
2018-12-24T02:05:37.438Z,12.18
2018-12-24T02:08:17.525Z,12.46
2018-12-24T02:10:57.677Z,12.28
2018-12-24T02:13:37.831Z,12.46
2018-12-24T02:16:25.337Z,12.26
2018-12-24T02:19:06.127Z,12.23
2018-12-24T02:21:46.226Z,12.27
2018-12-24T02:24:26.551Z,10.70
2018-12-24T02:27:07.321Z,9.19
2018-12-24T02:29:47.465Z,8.83
2018-12-24T02:32:27.620Z,8.58
2018-12-24T02:35:08.660Z,8.64
2018-12-24T02:37:49.240Z,8.69
2018-12-24T02:40:29.863Z,8.63
2018-12-24T02:43:09.916Z,8.59
2018-12-24T02:45:51.233Z,8.48
2018-12-24T02:48:31.997Z,8.61
2018-12-24T02:51:12.288Z,8.63
2018-12-24T02:53:53.016Z,8.55
2018-12-24T02:56:33.808Z,8.65
2018-12-24T02:59:14.847Z,8.57
2018-12-24T03:01:55.038Z,8.52
2018-12-24T03:04:35.359Z,8.54
2018-12-24T03:07:15.457Z,8.45
2018-12-24T03:09:55.549Z,8.31
2018-12-24T03:12:36.442Z,8.48
2018-12-24T03:15:16.578Z,8.49
2018-12-24T03:17:56.706Z,8.47
2018-12-24T03:20:37.769Z,8.47
2018-12-24T03:23:18.746Z,8.47
2018-12-24T03:25:59.309Z,8.30
2018-12-24T03:28:39.387Z,8.23
2018-12-24T03:31:19.560Z,8.26
2018-12-24T03:33:59.588Z,8.27
2018-12-24T03:36:40.413Z,8.31
2018-12-24T03:39:21.144Z,8.23
2018-12-24T03:42:02.261Z,8.12
2018-12-24T03:44:43.232Z,8.16
2018-12-24T03:47:23.398Z,8.07
2018-12-24T03:50:03.781Z,7.93
2018-12-24T03:52:44.265Z,8.09
2018-12-24T03:55:24.467Z,7.88
2018-12-24T03:58:05.295Z,7.74
2018-12-24T04:00:46.307Z,7.70
2018-12-24T04:03:26.529Z,7.44
2018-12-24T04:06:07.751Z,7.37
2018-12-24T04:08:48.713Z,7.43
2018-12-24T04:11:29.977Z,7.09
2018-12-24T04:14:10.908Z,7.04
2018-12-24T04:16:51.503Z,7.08
2018-12-24T04:19:32.081Z,7.02
2018-12-24T04:22:13.104Z,6.98
2018-12-24T04:24:53.986Z,6.84
2018-12-24T04:27:41.754Z,6.77
2018-12-24T04:30:17.589Z,6.93
2018-12-24T04:32:57.854Z,6.95
2018-12-24T04:35:38.530Z,7.02
2018-12-24T04:38:19.730Z,7.09
2018-12-24T04:41:00.767Z,6.97
2018-12-24T04:43:41.931Z,6.86
2018-12-24T04:46:22.934Z,6.95
2018-12-24T04:49:02.986Z,6.89
2018-12-24T04:51:43.325Z,6.71
2018-12-24T04:54:23.475Z,6.88
2018-12-24T04:57:03.572Z,6.81
2018-12-24T04:59:44.192Z,6.71
2018-12-24T05:02:24.547Z,6.63
2018-12-24T05:05:04.813Z,6.61
2018-12-24T05:07:45.674Z,6.59
2018-12-24T05:10:26.542Z,6.58
2018-12-24T05:13:06.709Z,6.54
2018-12-24T05:15:47.629Z,6.39
2018-12-24T05:18:29.323Z,6.57
2018-12-24T05:21:11.006Z,6.51
2018-12-24T05:23:51.673Z,6.49
2018-12-24T05:26:32.847Z,6.33
2018-12-24T05:29:13.316Z,6.46
2018-12-24T05:31:53.964Z,6.44
2018-12-24T05:34:34.513Z,6.45
2018-12-24T05:37:15.131Z,6.40
2018-12-24T05:39:55.181Z,6.24
2018-12-24T05:42:35.345Z,6.20
2018-12-24T05:45:15.840Z,6.08
2018-12-24T05:47:55.992Z,5.96
2018-12-24T05:50:36.152Z,5.97
2018-12-24T05:53:16.931Z,5.95
2018-12-24T05:56:04.251Z,5.97
2018-12-24T05:58:45.140Z,5.98
2018-12-24T06:01:25.426Z,5.89
2018-12-24T06:04:06.133Z,5.85
2018-12-24T06:06:46.856Z,5.74
2018-12-24T06:09:27.448Z,5.88
2018-12-24T06:12:07.738Z,5.74
2018-12-24T06:14:49.164Z,5.75
2018-12-24T06:17:30.099Z,5.87
2018-12-24T06:20:11.175Z,5.83
2018-12-24T06:22:51.259Z,5.69
2018-12-24T06:25:31.446Z,5.93
2018-12-24T06:28:12.521Z,5.77
2018-12-24T06:30:54.015Z,5.98
2018-12-24T06:33:34.775Z,5.81
2018-12-24T06:36:16.058Z,5.97
2018-12-24T06:38:56.970Z,6.03
2018-12-24T06:41:37.775Z,5.99
2018-12-24T06:44:18.193Z,5.88
2018-12-24T06:47:05.646Z,5.85
2018-12-24T06:49:46.082Z,5.95
2018-12-24T06:52:26.194Z,5.83
2018-12-24T06:55:06.544Z,5.94
2018-12-24T06:57:47.588Z,6.01
2018-12-24T07:00:28.607Z,6.11
2018-12-24T07:03:08.876Z,6.07
2018-12-24T07:05:50.008Z,6.10
2018-12-24T07:08:31.014Z,6.16
2018-12-24T07:11:11.126Z,6.10
2018-12-24T07:13:52.065Z,6.09
2018-12-24T07:16:33.004Z,6.01
2018-12-24T07:19:13.317Z,6.26
2018-12-24T07:21:53.520Z,6.33
2018-12-24T07:24:33.768Z,6.25
2018-12-24T07:27:14.000Z,6.32
2018-12-24T07:29:55.370Z,6.26
2018-12-24T07:32:36.327Z,6.16
2018-12-24T07:35:17.449Z,6.28
2018-12-24T07:37:57.488Z,6.17
2018-12-24T07:40:38.024Z,6.28
2018-12-24T07:43:19.225Z,6.10
2018-12-24T07:46:00.201Z,6.19
2018-12-24T07:48:47.696Z,6.16
2018-12-24T07:51:30.718Z,5.95
2018-12-24T07:54:11.382Z,5.92
2018-12-24T07:56:52.726Z,6.09
2018-12-24T07:59:33.672Z,6.10
2018-12-24T08:02:13.763Z,6.09
2018-12-24T08:04:55.646Z,5.99
2018-12-24T08:07:36.503Z,6.00
2018-12-24T08:10:17.363Z,6.10
2018-12-24T08:12:58.977Z,6.25
2018-12-24T08:15:39.709Z,6.23
2018-12-24T08:18:28.508Z,6.19
2018-12-24T08:21:32.295Z,6.16
2018-12-24T08:24:13.698Z,6.07
2018-12-24T08:26:55.705Z,6.23
2018-12-24T08:29:36.566Z,6.41
2018-12-24T08:32:17.170Z,6.36
2018-12-24T08:34:57.977Z,6.59
2018-12-24T08:37:39.303Z,6.47
2018-12-24T08:40:20.592Z,6.73
2018-12-24T08:43:01.504Z,6.67
2018-12-24T08:45:42.347Z,6.54
2018-12-24T08:48:24.174Z,6.65
2018-12-24T08:51:05.231Z,6.49
2018-12-24T08:53:45.371Z,6.59
2018-12-24T08:56:25.558Z,6.71
2018-12-24T08:59:05.685Z,6.65
2018-12-24T09:01:47.092Z,6.52
2018-12-24T09:04:27.540Z,6.49
2018-12-24T09:07:08.430Z,6.48
2018-12-24T09:09:48.452Z,6.41
2018-12-24T09:12:29.016Z,6.36
2018-12-24T09:15:10.154Z,6.39
2018-12-24T09:17:57.663Z,6.32
2018-12-24T09:20:38.626Z,6.36
2018-12-24T09:23:20.459Z,6.48
2018-12-24T09:26:01.017Z,6.58
2018-12-24T09:28:42.028Z,6.54
2018-12-24T09:31:23.381Z,6.63
2018-12-24T09:34:04.295Z,6.55
2018-12-24T09:36:52.076Z,6.76
2018-12-24T09:39:32.480Z,6.65
2018-12-24T09:42:12.725Z,6.53
2018-12-24T09:44:58.937Z,6.77
2018-12-24T09:47:36.077Z,6.78
2018-12-24T09:50:16.879Z,6.73
2018-12-24T09:52:58.186Z,6.71
2018-12-24T09:55:38.606Z,6.78
2018-12-24T09:58:19.418Z,6.89
2018-12-24T10:00:59.562Z,7.05
2018-12-24T10:03:42.654Z,7.13
2018-12-24T10:06:33.974Z,7.32
2018-12-24T10:09:14.992Z,7.20
2018-12-24T10:11:55.521Z,6.98
2018-12-24T10:14:36.177Z,7.10
2018-12-24T10:17:17.276Z,7.13
2018-12-24T10:19:57.580Z,7.21
2018-12-24T10:22:38.580Z,7.40
2018-12-24T10:25:18.672Z,7.34
2018-12-24T10:27:59.177Z,7.36
2018-12-24T10:30:40.414Z,7.52
2018-12-24T10:33:21.144Z,7.42
2018-12-24T10:36:02.269Z,7.52
2018-12-24T10:38:43.348Z,7.82
2018-12-24T10:41:25.218Z,7.90
2018-12-24T10:44:07.748Z,7.59
2018-12-24T10:46:48.602Z,7.74
2018-12-24T10:49:28.935Z,7.93
2018-12-24T10:52:09.262Z,8.02
2018-12-24T10:54:49.935Z,8.05
2018-12-24T10:57:30.014Z,8.02
2018-12-24T11:00:11.205Z,8.02
2018-12-24T11:02:52.395Z,8.22
2018-12-24T11:05:33.311Z,8.02
2018-12-24T11:08:13.871Z,7.87
2018-12-24T11:10:54.316Z,8.13
2018-12-24T11:13:35.150Z,8.00
2018-12-24T11:16:15.217Z,8.06
2018-12-24T11:18:55.263Z,7.92
2018-12-24T11:21:36.442Z,7.80
2018-12-24T11:24:17.898Z,7.64
2018-12-24T11:26:57.945Z,7.69
2018-12-24T11:29:38.797Z,7.72
2018-12-24T11:32:18.979Z,7.78
2018-12-24T11:35:06.511Z,7.75
2018-12-24T11:37:47.221Z,7.89
2018-12-24T11:40:27.426Z,7.56
2018-12-24T11:43:08.645Z,7.70
2018-12-24T11:45:50.213Z,7.70
2018-12-24T11:48:30.663Z,7.98
2018-12-24T11:51:10.718Z,7.90
2018-12-24T11:53:51.081Z,7.66
2018-12-24T11:56:31.580Z,7.37
2018-12-24T11:59:12.419Z,7.24
2018-12-24T12:01:52.902Z,6.98
2018-12-24T12:04:33.667Z,6.95
2018-12-24T12:07:15.055Z,6.92
2018-12-24T12:09:55.977Z,6.86
2018-12-24T12:12:36.435Z,7.15
2018-12-24T12:15:16.715Z,7.17
2018-12-24T12:17:56.933Z,7.02
2018-12-24T12:20:37.174Z,7.18
2018-12-24T12:23:18.165Z,7.19
2018-12-24T12:25:58.296Z,7.08
2018-12-24T12:28:38.446Z,6.98
2018-12-24T12:31:18.512Z,6.99
2018-12-24T12:33:58.634Z,7.05
2018-12-24T12:36:40.678Z,6.98
2018-12-24T12:39:21.040Z,7.38
2018-12-24T12:42:01.171Z,7.41
2018-12-24T12:44:41.244Z,7.57
2018-12-24T12:47:22.407Z,7.47
2018-12-24T12:50:03.396Z,7.73
2018-12-24T12:52:44.425Z,7.77
2018-12-24T12:55:25.555Z,7.92
2018-12-24T12:58:06.466Z,7.62
2018-12-24T13:00:46.958Z,7.85
2018-12-24T13:03:27.802Z,8.21
2018-12-24T13:06:15.665Z,8.12
2018-12-24T13:08:55.898Z,8.01
2018-12-24T13:11:36.998Z,8.02
2018-12-24T13:14:17.993Z,8.05
2018-12-24T13:16:58.868Z,8.06
2018-12-24T13:19:39.719Z,8.16
2018-12-24T13:22:20.791Z,8.36
2018-12-24T13:25:00.865Z,8.37
2018-12-24T13:27:41.899Z,8.48
2018-12-24T13:30:23.782Z,8.52
2018-12-24T13:33:04.043Z,8.42
2018-12-24T13:35:51.836Z,8.51
2018-12-24T13:38:31.876Z,8.43
2018-12-24T13:41:12.853Z,7.56
2018-12-24T13:43:53.084Z,7.18
2018-12-24T13:46:33.163Z,7.10
2018-12-24T13:49:14.079Z,6.98
2018-12-24T13:51:54.308Z,7.01
2018-12-24T13:54:34.354Z,7.11
2018-12-24T13:57:14.801Z,7.13
2018-12-24T13:59:55.844Z,7.17
2018-12-24T14:02:36.825Z,7.34
2018-12-24T14:05:17.728Z,8.41
2018-12-24T14:07:57.859Z,11.07
2018-12-24T14:10:37.933Z,13.37
2018-12-24T14:13:18.942Z,15.11
2018-12-24T14:15:59.280Z,14.69
2018-12-24T14:18:39.498Z,15.93
2018-12-24T14:21:07.511Z,15.92
2018-12-24T14:23:35.574Z,14.47
2018-12-24T14:26:03.879Z,10.77
2018-12-24T14:28:32.084Z,8.95
2018-12-24T14:31:00.086Z,8.16
2018-12-24T14:33:28.626Z,7.41
2018-12-24T14:35:57.174Z,7.42
2018-12-24T14:38:25.176Z,7.19
2018-12-24T14:40:53.229Z,7.41
2018-12-24T14:43:21.451Z,7.33
2018-12-24T14:45:49.457Z,6.90
2018-12-24T14:48:17.659Z,7.09
2018-12-24T14:50:47.375Z,7.08
2018-12-24T14:53:15.849Z,6.96
2018-12-24T14:55:44.050Z,7.03
2018-12-24T14:58:12.449Z,7.19
2018-12-24T15:00:40.710Z,7.07
2018-12-24T15:03:09.182Z,6.95
2018-12-24T15:05:37.130Z,6.93
2018-12-24T15:08:05.176Z,6.92
2018-12-24T15:10:33.643Z,6.80
2018-12-24T15:13:01.664Z,6.78
2018-12-24T15:15:29.875Z,6.72
2018-12-24T15:17:58.331Z,6.63
2018-12-24T15:20:26.577Z,6.50
2018-12-24T15:22:54.576Z,6.55
2018-12-24T15:25:22.567Z,6.56
2018-12-24T15:27:50.790Z,6.62
2018-12-24T15:30:18.755Z,6.55
2018-12-24T15:32:47.230Z,6.58
2018-12-24T15:35:15.709Z,6.58
2018-12-24T15:37:43.926Z,6.53
2018-12-24T15:40:12.204Z,6.43
2018-12-24T15:42:40.323Z,6.43
2018-12-24T15:45:08.316Z,6.44
2018-12-24T15:47:36.423Z,6.50
2018-12-24T15:50:04.577Z,6.31
2018-12-24T15:52:32.522Z,6.24
2018-12-24T15:55:00.597Z,6.25
2018-12-24T15:57:28.564Z,6.20
2018-12-24T15:59:57.338Z,6.30
2018-12-24T16:02:25.625Z,6.20
2018-12-24T16:04:53.901Z,6.20
2018-12-24T16:07:21.886Z,6.03
2018-12-24T16:09:50.147Z,6.10
2018-12-24T16:12:19.254Z,5.98
2018-12-24T16:14:47.476Z,5.88
2018-12-24T16:17:15.967Z,5.89
2018-12-24T16:19:44.200Z,5.85
2018-12-24T16:22:12.419Z,5.67
2018-12-24T16:24:40.675Z,5.60
2018-12-24T16:27:08.642Z,5.49
2018-12-24T16:29:36.609Z,5.45
2018-12-24T16:32:04.558Z,5.43
2018-12-24T16:34:32.583Z,5.47
2018-12-24T16:37:00.586Z,5.39
2018-12-24T16:39:28.596Z,5.36
2018-12-24T16:41:56.795Z,5.40
2018-12-24T16:44:24.835Z,5.34
2018-12-24T16:46:59.322Z,5.26
2018-12-24T16:49:25.422Z,5.06
2018-12-24T16:51:53.372Z,5.01
2018-12-24T16:54:21.998Z,5.00
2018-12-24T16:56:50.075Z,5.02
2018-12-24T16:59:18.336Z,5.18
2018-12-24T17:01:46.693Z,5.37
2018-12-24T17:04:15.949Z,5.33
2018-12-24T17:06:44.028Z,5.28
2018-12-24T17:09:11.990Z,5.22
2018-12-24T17:11:39.929Z,5.13
2018-12-24T17:14:08.411Z,5.09
2018-12-24T17:16:36.698Z,4.98
2018-12-24T17:19:04.727Z,5.07
2018-12-24T17:21:33.170Z,5.10
2018-12-24T17:24:01.171Z,5.15
2018-12-24T17:26:29.169Z,5.20
2018-12-24T17:28:57.179Z,5.14
2018-12-24T17:31:25.390Z,5.24
2018-12-24T17:33:53.492Z,5.22
2018-12-24T17:36:21.814Z,5.15
2018-12-24T17:38:49.831Z,5.31
2018-12-24T17:41:17.873Z,5.43
2018-12-24T17:43:45.915Z,5.39
2018-12-24T17:46:13.923Z,5.51
2018-12-24T17:48:42.157Z,5.53
2018-12-24T17:51:10.522Z,5.65
2018-12-24T17:53:38.902Z,5.70
2018-12-24T17:56:07.084Z,5.64
2018-12-24T17:58:35.210Z,5.67
2018-12-24T18:01:04.112Z,5.60
2018-12-24T18:03:36.168Z,5.55
2018-12-24T18:06:07.384Z,5.56
2018-12-24T18:08:35.953Z,5.46
2018-12-24T18:11:04.383Z,5.42
2018-12-24T18:13:32.748Z,5.48
2018-12-24T18:16:00.977Z,5.51
2018-12-24T18:18:29.496Z,5.61
2018-12-24T18:20:57.530Z,5.55
2018-12-24T18:23:25.712Z,5.57
2018-12-24T18:25:53.931Z,5.57
2018-12-24T18:28:22.191Z,5.43
2018-12-24T18:30:50.365Z,5.36
2018-12-24T18:33:18.324Z,5.36
2018-12-24T18:35:46.612Z,5.27
2018-12-24T18:38:14.614Z,5.42
2018-12-24T18:40:42.768Z,5.38
2018-12-24T18:43:10.854Z,5.33
2018-12-24T18:45:39.622Z,5.47
2018-12-24T18:48:07.791Z,5.44
2018-12-24T18:50:36.671Z,5.38
2018-12-24T18:53:04.822Z,5.56
2018-12-24T18:55:32.787Z,5.63
2018-12-24T18:58:01.190Z,5.76
2018-12-24T19:00:29.406Z,5.69
2018-12-24T19:02:57.634Z,5.75
2018-12-24T19:05:25.915Z,5.40
2018-12-24T19:07:53.952Z,5.43
2018-12-24T19:10:21.983Z,5.47
2018-12-24T19:12:50.171Z,5.44
2018-12-24T19:15:18.271Z,5.50
2018-12-24T19:17:46.778Z,5.47
2018-12-24T19:20:14.747Z,5.37
2018-12-24T19:22:43.054Z,5.25
2018-12-24T19:25:11.291Z,5.15
2018-12-24T19:27:39.550Z,5.11
2018-12-24T19:30:08.805Z,5.27
2018-12-24T19:32:37.232Z,5.25
2018-12-24T19:35:05.126Z,5.33
2018-12-24T19:37:33.405Z,5.26
2018-12-24T19:40:01.439Z,5.17
2018-12-24T19:42:29.441Z,5.11
2018-12-24T19:44:57.485Z,5.03
2018-12-24T19:47:25.454Z,4.90
2018-12-24T19:49:53.489Z,4.81
2018-12-24T19:52:21.897Z,4.73
2018-12-24T19:54:49.890Z,4.74
2018-12-24T19:57:18.035Z,4.71
2018-12-24T19:59:46.388Z,4.67
2018-12-24T20:02:14.342Z,4.59
2018-12-24T20:04:43.032Z,4.65
2018-12-24T20:07:11.373Z,4.52
2018-12-24T20:09:39.727Z,4.46
2018-12-24T20:12:07.997Z,4.51
2018-12-24T20:14:36.060Z,4.55
2018-12-24T20:17:04.280Z,4.38
2018-12-24T20:19:32.577Z,4.35
2018-12-24T20:22:00.719Z,4.22
2018-12-24T20:24:29.391Z,4.06
2018-12-24T20:26:57.371Z,4.06
2018-12-24T20:29:25.310Z,4.00
2018-12-24T20:31:53.371Z,3.98
2018-12-24T20:34:21.458Z,3.92
2018-12-24T20:36:49.453Z,3.90
2018-12-24T20:39:17.550Z,3.82
2018-12-24T20:41:45.498Z,3.78
2018-12-24T20:44:13.463Z,3.77
2018-12-24T20:46:41.397Z,3.69
2018-12-24T20:49:09.338Z,3.59
2018-12-24T20:51:37.304Z,3.52
2018-12-24T20:54:05.247Z,3.56
2018-12-24T20:56:33.806Z,3.57
2018-12-24T20:59:01.760Z,3.57
2018-12-24T21:01:29.772Z,3.50
2018-12-24T21:03:59.623Z,3.46
2018-12-24T21:06:28.484Z,3.39
2018-12-24T21:08:56.516Z,3.41
2018-12-24T21:11:24.844Z,3.35
2018-12-24T21:13:53.028Z,3.30
2018-12-24T21:16:21.000Z,3.41
2018-12-24T21:18:49.238Z,3.33
2018-12-24T21:21:17.319Z,3.28
2018-12-24T21:23:45.419Z,3.30
2018-12-24T21:26:13.884Z,3.30
2018-12-24T21:28:41.872Z,3.32
2018-12-24T21:31:10.131Z,3.20
2018-12-24T21:33:38.120Z,3.19
2018-12-24T21:36:06.105Z,3.09
2018-12-24T21:38:34.212Z,2.99
2018-12-24T21:41:02.146Z,2.99
2018-12-24T21:43:30.106Z,2.99
2018-12-24T21:45:58.114Z,2.98
2018-12-24T21:48:26.724Z,2.98
2018-12-24T21:50:54.970Z,2.99
2018-12-24T21:53:23.067Z,2.87
2018-12-24T21:55:52.788Z,2.85
2018-12-24T21:58:21.155Z,2.78
2018-12-24T22:00:49.135Z,2.80
2018-12-24T22:03:17.100Z,2.74
2018-12-24T22:05:45.054Z,2.78
2018-12-24T22:08:13.253Z,2.67
2018-12-24T22:10:41.444Z,2.70
2018-12-24T22:13:09.418Z,2.76
2018-12-24T22:15:37.349Z,2.75
2018-12-24T22:18:06.324Z,2.68
2018-12-24T22:20:34.309Z,2.72
2018-12-24T22:23:02.477Z,2.70
2018-12-24T22:25:30.548Z,2.65
2018-12-24T22:27:58.515Z,2.64
2018-12-24T22:30:26.488Z,2.63
2018-12-24T22:32:54.561Z,2.63
2018-12-24T22:35:22.731Z,2.64
2018-12-24T22:37:50.787Z,2.65
2018-12-24T22:40:18.778Z,2.65
2018-12-24T22:42:46.714Z,2.58
2018-12-24T22:45:14.856Z,2.55
2018-12-24T22:47:43.163Z,2.53
2018-12-24T22:50:11.088Z,2.56
2018-12-24T22:52:39.093Z,2.56
2018-12-24T22:55:07.028Z,2.55
2018-12-24T22:57:35.000Z,2.52
2018-12-24T23:00:03.890Z,2.42
2018-12-24T23:02:31.932Z,2.43
2018-12-24T23:04:59.840Z,2.43
2018-12-24T23:07:28.022Z,2.31
2018-12-24T23:09:56.481Z,2.27
2018-12-24T23:12:24.431Z,2.24
2018-12-24T23:14:52.663Z,2.23
2018-12-24T23:17:20.874Z,2.21
2018-12-24T23:19:48.887Z,2.15
2018-12-24T23:22:17.159Z,2.21
2018-12-24T23:24:45.166Z,2.15
2018-12-24T23:27:13.161Z,2.08
2018-12-24T23:29:41.444Z,2.17
2018-12-24T23:32:09.380Z,2.09
2018-12-24T23:34:37.415Z,2.11
2018-12-24T23:37:05.421Z,2.05
2018-12-24T23:39:33.363Z,2.02
2018-12-24T23:42:01.836Z,2.05
2018-12-24T23:44:30.043Z,2.06
2018-12-24T23:46:57.980Z,1.93
2018-12-24T23:49:25.952Z,1.93
2018-12-24T23:51:53.868Z,1.92
2018-12-24T23:54:22.091Z,1.98
2018-12-24T23:56:50.289Z,1.96
2018-12-24T23:59:18.228Z,1.88
